sensor_id;sensor_type;location;lat;lon;timestamp;P1;durP1;ratioP1;P2;durP2;ratioP2
44147;SDS011;29810;55.848;37.368;2022-12-18T00:00:00;21.73;;;13.90;;
44147;SDS011;29810;55.848;37.368;2022-12-18T00:03:04;19.30;;;10.80;;
44147;SDS011;29810;55.848;37.368;2022-12-18T00:06:06;21.35;;;12.88;;
44147;SDS011;29810;55.848;37.368;2022-12-18T00:09:09;23.45;;;13.40;;
44147;SDS011;29810;55.848;37.368;2022-12-18T00:12:10;21.37;;;13.43;;
44147;SDS011;29810;55.848;37.368;2022-12-18T00:15:12;18.45;;;10.77;;
44147;SDS011;29810;55.848;37.368;2022-12-18T00:18:14;18.67;;;10.07;;
44147;SDS011;29810;55.848;37.368;2022-12-18T00:21:15;20.08;;;12.07;;
44147;SDS011;29810;55.848;37.368;2022-12-18T00:24:17;21.30;;;12.18;;
44147;SDS011;29810;55.848;37.368;2022-12-18T00:27:19;18.62;;;9.93;;
44147;SDS011;29810;55.848;37.368;2022-12-18T00:30:21;24.60;;;13.23;;
44147;SDS011;29810;55.848;37.368;2022-12-18T00:33:22;34.20;;;14.55;;
44147;SDS011;29810;55.848;37.368;2022-12-18T00:36:25;17.00;;;10.05;;
44147;SDS011;29810;55.848;37.368;2022-12-18T00:39:29;23.90;;;10.57;;
44147;SDS011;29810;55.848;37.368;2022-12-18T00:42:31;17.35;;;9.55;;
44147;SDS011;29810;55.848;37.368;2022-12-18T00:45:51;16.58;;;10.88;;
44147;SDS011;29810;55.848;37.368;2022-12-18T00:48:53;17.40;;;11.40;;
44147;SDS011;29810;55.848;37.368;2022-12-18T00:51:55;15.70;;;7.97;;
44147;SDS011;29810;55.848;37.368;2022-12-18T00:54:56;16.67;;;10.73;;
44147;SDS011;29810;55.848;37.368;2022-12-18T00:57:58;21.58;;;14.93;;
44147;SDS011;29810;55.848;37.368;2022-12-18T01:00:59;17.50;;;12.35;;
44147;SDS011;29810;55.848;37.368;2022-12-18T01:04:02;16.52;;;9.82;;
44147;SDS011;29810;55.848;37.368;2022-12-18T01:07:04;16.08;;;8.43;;
44147;SDS011;29810;55.848;37.368;2022-12-18T01:10:06;17.17;;;9.90;;
44147;SDS011;29810;55.848;37.368;2022-12-18T01:13:09;17.77;;;10.85;;
44147;SDS011;29810;55.848;37.368;2022-12-18T01:16:11;15.15;;;8.98;;
44147;SDS011;29810;55.848;37.368;2022-12-18T01:19:14;16.15;;;9.57;;
44147;SDS011;29810;55.848;37.368;2022-12-18T01:22:15;17.37;;;11.35;;
44147;SDS011;29810;55.848;37.368;2022-12-18T01:25:19;16.65;;;8.95;;
44147;SDS011;29810;55.848;37.368;2022-12-18T01:28:20;14.98;;;8.98;;
44147;SDS011;29810;55.848;37.368;2022-12-18T01:34:25;23.90;;;11.68;;
44147;SDS011;29810;55.848;37.368;2022-12-18T01:37:27;15.82;;;9.18;;
44147;SDS011;29810;55.848;37.368;2022-12-18T01:40:29;15.95;;;9.77;;
44147;SDS011;29810;55.848;37.368;2022-12-18T01:47:01;15.85;;;10.98;;
44147;SDS011;29810;55.848;37.368;2022-12-18T01:50:08;18.70;;;9.23;;
44147;SDS011;29810;55.848;37.368;2022-12-18T01:53:30;16.20;;;9.38;;
44147;SDS011;29810;55.848;37.368;2022-12-18T01:56:32;31.33;;;10.95;;
44147;SDS011;29810;55.848;37.368;2022-12-18T01:59:33;15.68;;;8.80;;
44147;SDS011;29810;55.848;37.368;2022-12-18T02:02:38;14.55;;;9.82;;
44147;SDS011;29810;55.848;37.368;2022-12-18T02:09:02;13.13;;;7.75;;
44147;SDS011;29810;55.848;37.368;2022-12-18T02:18:38;17.67;;;12.20;;
44147;SDS011;29810;55.848;37.368;2022-12-18T02:25:23;16.45;;;10.27;;
44147;SDS011;29810;55.848;37.368;2022-12-18T02:28:40;14.13;;;8.60;;
44147;SDS011;29810;55.848;37.368;2022-12-18T02:31:47;14.90;;;10.55;;
44147;SDS011;29810;55.848;37.368;2022-12-18T02:34:53;16.12;;;9.27;;
44147;SDS011;29810;55.848;37.368;2022-12-18T02:37:58;16.57;;;9.50;;
44147;SDS011;29810;55.848;37.368;2022-12-18T02:41:00;13.55;;;7.10;;
44147;SDS011;29810;55.848;37.368;2022-12-18T02:44:09;16.30;;;10.02;;
44147;SDS011;29810;55.848;37.368;2022-12-18T02:47:13;14.13;;;8.10;;
44147;SDS011;29810;55.848;37.368;2022-12-18T02:53:22;13.68;;;8.32;;
44147;SDS011;29810;55.848;37.368;2022-12-18T02:56:31;13.95;;;8.38;;
44147;SDS011;29810;55.848;37.368;2022-12-18T02:59:47;13.32;;;7.93;;
44147;SDS011;29810;55.848;37.368;2022-12-18T03:06:10;14.00;;;7.35;;
44147;SDS011;29810;55.848;37.368;2022-12-18T03:09:36;13.30;;;7.75;;
44147;SDS011;29810;55.848;37.368;2022-12-18T03:12:47;11.50;;;7.22;;
44147;SDS011;29810;55.848;37.368;2022-12-18T03:15:57;16.23;;;10.57;;
44147;SDS011;29810;55.848;37.368;2022-12-18T03:19:01;13.15;;;7.53;;
44147;SDS011;29810;55.848;37.368;2022-12-18T03:22:08;11.48;;;7.50;;
44147;SDS011;29810;55.848;37.368;2022-12-18T03:25:13;12.40;;;8.55;;
44147;SDS011;29810;55.848;37.368;2022-12-18T03:28:20;14.82;;;8.02;;
44147;SDS011;29810;55.848;37.368;2022-12-18T03:31:23;13.32;;;8.95;;
44147;SDS011;29810;55.848;37.368;2022-12-18T03:34:32;8.43;;;4.87;;
44147;SDS011;29810;55.848;37.368;2022-12-18T03:37:36;10.48;;;6.10;;
44147;SDS011;29810;55.848;37.368;2022-12-18T03:40:51;16.92;;;6.70;;
44147;SDS011;29810;55.848;37.368;2022-12-18T03:50:47;10.95;;;6.30;;
44147;SDS011;29810;55.848;37.368;2022-12-18T03:53:59;10.90;;;5.85;;
44147;SDS011;29810;55.848;37.368;2022-12-18T03:57:09;11.47;;;7.83;;
44147;SDS011;29810;55.848;37.368;2022-12-18T04:00:16;14.98;;;7.45;;
44147;SDS011;29810;55.848;37.368;2022-12-18T04:03:24;14.75;;;8.73;;
44147;SDS011;29810;55.848;37.368;2022-12-18T04:06:27;13.18;;;7.15;;
44147;SDS011;29810;55.848;37.368;2022-12-18T04:09:32;13.05;;;6.95;;
44147;SDS011;29810;55.848;37.368;2022-12-18T04:12:36;7.90;;;5.20;;
44147;SDS011;29810;55.848;37.368;2022-12-18T04:15:44;13.93;;;8.05;;
44147;SDS011;29810;55.848;37.368;2022-12-18T04:18:48;14.73;;;6.93;;
44147;SDS011;29810;55.848;37.368;2022-12-18T04:25:38;8.45;;;4.82;;
44147;SDS011;29810;55.848;37.368;2022-12-18T04:28:40;14.00;;;8.48;;
44147;SDS011;29810;55.848;37.368;2022-12-18T04:31:41;12.45;;;8.25;;
44147;SDS011;29810;55.848;37.368;2022-12-18T04:34:43;13.75;;;7.75;;
44147;SDS011;29810;55.848;37.368;2022-12-18T04:37:45;12.80;;;7.43;;
44147;SDS011;29810;55.848;37.368;2022-12-18T04:40:47;13.65;;;8.63;;
44147;SDS011;29810;55.848;37.368;2022-12-18T04:43:49;12.02;;;6.37;;
44147;SDS011;29810;55.848;37.368;2022-12-18T04:46:51;15.60;;;7.28;;
44147;SDS011;29810;55.848;37.368;2022-12-18T04:49:52;14.55;;;9.82;;
44147;SDS011;29810;55.848;37.368;2022-12-18T04:52:55;10.32;;;6.68;;
44147;SDS011;29810;55.848;37.368;2022-12-18T04:56:03;11.68;;;7.65;;
44147;SDS011;29810;55.848;37.368;2022-12-18T04:59:06;12.60;;;6.20;;
44147;SDS011;29810;55.848;37.368;2022-12-18T05:02:08;14.77;;;9.27;;
44147;SDS011;29810;55.848;37.368;2022-12-18T05:05:09;15.38;;;8.32;;
44147;SDS011;29810;55.848;37.368;2022-12-18T05:08:12;11.02;;;6.80;;
44147;SDS011;29810;55.848;37.368;2022-12-18T05:11:14;13.80;;;7.93;;
44147;SDS011;29810;55.848;37.368;2022-12-18T05:14:16;11.73;;;7.07;;
44147;SDS011;29810;55.848;37.368;2022-12-18T05:17:18;13.18;;;7.43;;
44147;SDS011;29810;55.848;37.368;2022-12-18T05:20:19;11.10;;;6.62;;
44147;SDS011;29810;55.848;37.368;2022-12-18T05:23:21;11.57;;;6.30;;
44147;SDS011;29810;55.848;37.368;2022-12-18T05:26:24;5.97;;;3.50;;
44147;SDS011;29810;55.848;37.368;2022-12-18T05:29:25;10.25;;;5.70;;
44147;SDS011;29810;55.848;37.368;2022-12-18T05:32:27;11.27;;;6.60;;
44147;SDS011;29810;55.848;37.368;2022-12-18T05:35:29;11.70;;;6.53;;
44147;SDS011;29810;55.848;37.368;2022-12-18T05:38:31;11.90;;;6.57;;
44147;SDS011;29810;55.848;37.368;2022-12-18T05:41:33;10.68;;;6.07;;
44147;SDS011;29810;55.848;37.368;2022-12-18T05:44:36;12.45;;;7.25;;
44147;SDS011;29810;55.848;37.368;2022-12-18T05:47:38;14.07;;;8.63;;
44147;SDS011;29810;55.848;37.368;2022-12-18T05:50:39;9.80;;;5.95;;
44147;SDS011;29810;55.848;37.368;2022-12-18T05:53:43;13.43;;;8.05;;
44147;SDS011;29810;55.848;37.368;2022-12-18T05:56:45;11.85;;;7.45;;
44147;SDS011;29810;55.848;37.368;2022-12-18T05:59:46;12.18;;;6.35;;
44147;SDS011;29810;55.848;37.368;2022-12-18T06:02:48;9.98;;;6.55;;
44147;SDS011;29810;55.848;37.368;2022-12-18T06:05:50;12.13;;;7.80;;
44147;SDS011;29810;55.848;37.368;2022-12-18T06:08:52;14.13;;;8.48;;
44147;SDS011;29810;55.848;37.368;2022-12-18T06:11:55;13.23;;;6.97;;
44147;SDS011;29810;55.848;37.368;2022-12-18T06:14:56;10.30;;;5.53;;
44147;SDS011;29810;55.848;37.368;2022-12-18T06:18:00;11.85;;;5.95;;
44147;SDS011;29810;55.848;37.368;2022-12-18T06:21:02;11.05;;;6.45;;
44147;SDS011;29810;55.848;37.368;2022-12-18T06:24:04;10.80;;;6.75;;
44147;SDS011;29810;55.848;37.368;2022-12-18T06:27:05;8.75;;;5.30;;
44147;SDS011;29810;55.848;37.368;2022-12-18T06:30:07;21.27;;;8.73;;
44147;SDS011;29810;55.848;37.368;2022-12-18T06:33:09;10.98;;;6.32;;
44147;SDS011;29810;55.848;37.368;2022-12-18T06:36:12;12.25;;;7.18;;
44147;SDS011;29810;55.848;37.368;2022-12-18T06:39:14;14.85;;;8.32;;
44147;SDS011;29810;55.848;37.368;2022-12-18T06:42:16;12.68;;;7.80;;
44147;SDS011;29810;55.848;37.368;2022-12-18T06:45:17;13.88;;;7.07;;
44147;SDS011;29810;55.848;37.368;2022-12-18T06:48:19;10.02;;;5.32;;
44147;SDS011;29810;55.848;37.368;2022-12-18T06:51:21;10.27;;;6.03;;
44147;SDS011;29810;55.848;37.368;2022-12-18T06:54:24;12.70;;;7.43;;
44147;SDS011;29810;55.848;37.368;2022-12-18T06:57:25;8.18;;;4.57;;
44147;SDS011;29810;55.848;37.368;2022-12-18T07:00:27;13.23;;;7.53;;
44147;SDS011;29810;55.848;37.368;2022-12-18T07:03:28;13.30;;;8.07;;
44147;SDS011;29810;55.848;37.368;2022-12-18T07:06:30;10.85;;;6.10;;
44147;SDS011;29810;55.848;37.368;2022-12-18T07:09:32;10.20;;;5.75;;
44147;SDS011;29810;55.848;37.368;2022-12-18T07:12:34;15.02;;;8.32;;
44147;SDS011;29810;55.848;37.368;2022-12-18T07:15:36;11.45;;;7.20;;
44147;SDS011;29810;55.848;37.368;2022-12-18T07:18:38;11.07;;;6.03;;
44147;SDS011;29810;55.848;37.368;2022-12-18T07:21:39;9.88;;;5.55;;
44147;SDS011;29810;55.848;37.368;2022-12-18T07:24:41;9.68;;;5.72;;
44147;SDS011;29810;55.848;37.368;2022-12-18T07:27:42;9.98;;;5.90;;
44147;SDS011;29810;55.848;37.368;2022-12-18T07:30:44;10.90;;;6.30;;
44147;SDS011;29810;55.848;37.368;2022-12-18T07:33:46;12.70;;;6.78;;
44147;SDS011;29810;55.848;37.368;2022-12-18T07:36:49;12.27;;;7.30;;
44147;SDS011;29810;55.848;37.368;2022-12-18T07:39:50;11.90;;;5.25;;
44147;SDS011;29810;55.848;37.368;2022-12-18T07:42:52;12.23;;;6.93;;
44147;SDS011;29810;55.848;37.368;2022-12-18T07:45:53;14.48;;;8.90;;
44147;SDS011;29810;55.848;37.368;2022-12-18T07:48:59;15.18;;;9.63;;
44147;SDS011;29810;55.848;37.368;2022-12-18T07:52:00;11.00;;;5.03;;
44147;SDS011;29810;55.848;37.368;2022-12-18T07:55:03;11.25;;;5.20;;
44147;SDS011;29810;55.848;37.368;2022-12-18T07:58:05;11.90;;;7.78;;
44147;SDS011;29810;55.848;37.368;2022-12-18T08:01:08;11.68;;;7.05;;
44147;SDS011;29810;55.848;37.368;2022-12-18T08:04:14;10.60;;;6.22;;
44147;SDS011;29810;55.848;37.368;2022-12-18T08:07:15;10.35;;;5.93;;
44147;SDS011;29810;55.848;37.368;2022-12-18T08:10:18;10.85;;;5.62;;
44147;SDS011;29810;55.848;37.368;2022-12-18T08:13:20;8.80;;;5.40;;
44147;SDS011;29810;55.848;37.368;2022-12-18T08:16:22;10.45;;;6.05;;
44147;SDS011;29810;55.848;37.368;2022-12-18T08:19:24;11.50;;;7.20;;
44147;SDS011;29810;55.848;37.368;2022-12-18T08:22:26;11.95;;;7.90;;
44147;SDS011;29810;55.848;37.368;2022-12-18T08:25:27;10.15;;;6.50;;
44147;SDS011;29810;55.848;37.368;2022-12-18T08:28:29;8.20;;;4.00;;
44147;SDS011;29810;55.848;37.368;2022-12-18T08:31:30;14.00;;;6.82;;
44147;SDS011;29810;55.848;37.368;2022-12-18T08:34:33;13.68;;;6.78;;
44147;SDS011;29810;55.848;37.368;2022-12-18T08:37:34;11.02;;;6.55;;
44147;SDS011;29810;55.848;37.368;2022-12-18T08:40:36;9.27;;;5.03;;
44147;SDS011;29810;55.848;37.368;2022-12-18T08:43:37;8.75;;;5.15;;
44147;SDS011;29810;55.848;37.368;2022-12-18T08:46:57;9.25;;;5.07;;
44147;SDS011;29810;55.848;37.368;2022-12-18T08:50:00;11.27;;;5.97;;
44147;SDS011;29810;55.848;37.368;2022-12-18T08:53:04;8.73;;;4.93;;
44147;SDS011;29810;55.848;37.368;2022-12-18T08:56:06;8.82;;;4.55;;
44147;SDS011;29810;55.848;37.368;2022-12-18T08:59:09;9.52;;;6.18;;
44147;SDS011;29810;55.848;37.368;2022-12-18T09:02:10;10.57;;;5.18;;
44147;SDS011;29810;55.848;37.368;2022-12-18T09:05:12;8.95;;;5.82;;
44147;SDS011;29810;55.848;37.368;2022-12-18T09:08:14;10.52;;;5.70;;
44147;SDS011;29810;55.848;37.368;2022-12-18T09:11:20;9.75;;;5.53;;
44147;SDS011;29810;55.848;37.368;2022-12-18T09:14:25;10.52;;;6.35;;
44147;SDS011;29810;55.848;37.368;2022-12-18T09:17:27;9.13;;;6.32;;
44147;SDS011;29810;55.848;37.368;2022-12-18T09:20:28;16.67;;;7.15;;
44147;SDS011;29810;55.848;37.368;2022-12-18T09:23:31;11.90;;;7.93;;
44147;SDS011;29810;55.848;37.368;2022-12-18T09:26:32;9.65;;;5.90;;
44147;SDS011;29810;55.848;37.368;2022-12-18T09:29:34;9.02;;;5.32;;
44147;SDS011;29810;55.848;37.368;2022-12-18T09:32:35;5.97;;;3.28;;
44147;SDS011;29810;55.848;37.368;2022-12-18T09:35:40;10.52;;;6.47;;
44147;SDS011;29810;55.848;37.368;2022-12-18T09:41:46;8.02;;;3.95;;
44147;SDS011;29810;55.848;37.368;2022-12-18T09:44:57;8.70;;;4.93;;
44147;SDS011;29810;55.848;37.368;2022-12-18T09:48:02;8.98;;;4.55;;
44147;SDS011;29810;55.848;37.368;2022-12-18T09:51:50;9.35;;;5.32;;
44147;SDS011;29810;55.848;37.368;2022-12-18T09:54:44;7.78;;;4.32;;
44147;SDS011;29810;55.848;37.368;2022-12-18T09:57:53;10.40;;;5.75;;
44147;SDS011;29810;55.848;37.368;2022-12-18T10:00:58;8.02;;;4.90;;
44147;SDS011;29810;55.848;37.368;2022-12-18T10:04:00;9.02;;;5.55;;
44147;SDS011;29810;55.848;37.368;2022-12-18T10:07:03;8.23;;;4.12;;
44147;SDS011;29810;55.848;37.368;2022-12-18T10:13:42;9.45;;;5.53;;
44147;SDS011;29810;55.848;37.368;2022-12-18T10:20:05;10.50;;;6.03;;
44147;SDS011;29810;55.848;37.368;2022-12-18T10:26:34;10.40;;;6.43;;
44147;SDS011;29810;55.848;37.368;2022-12-18T10:29:36;7.37;;;3.40;;
44147;SDS011;29810;55.848;37.368;2022-12-18T10:32:38;7.72;;;4.53;;
44147;SDS011;29810;55.848;37.368;2022-12-18T10:35:40;8.75;;;5.32;;
44147;SDS011;29810;55.848;37.368;2022-12-18T10:38:43;10.43;;;5.50;;
44147;SDS011;29810;55.848;37.368;2022-12-18T10:41:45;8.27;;;4.57;;
44147;SDS011;29810;55.848;37.368;2022-12-18T10:44:47;12.07;;;4.03;;
44147;SDS011;29810;55.848;37.368;2022-12-18T10:48:08;6.87;;;3.95;;
44147;SDS011;29810;55.848;37.368;2022-12-18T10:54:26;9.77;;;5.20;;
44147;SDS011;29810;55.848;37.368;2022-12-18T10:57:37;8.88;;;5.87;;
44147;SDS011;29810;55.848;37.368;2022-12-18T11:00:41;9.20;;;5.05;;
44147;SDS011;29810;55.848;37.368;2022-12-18T11:03:58;8.70;;;5.40;;
44147;SDS011;29810;55.848;37.368;2022-12-18T11:07:05;6.30;;;4.22;;
44147;SDS011;29810;55.848;37.368;2022-12-18T11:10:15;7.22;;;3.95;;
44147;SDS011;29810;55.848;37.368;2022-12-18T11:13:28;8.00;;;4.90;;
44147;SDS011;29810;55.848;37.368;2022-12-18T11:16:36;9.45;;;4.85;;
44147;SDS011;29810;55.848;37.368;2022-12-18T11:19:44;8.70;;;4.93;;
44147;SDS011;29810;55.848;37.368;2022-12-18T11:22:54;9.60;;;5.75;;
44147;SDS011;29810;55.848;37.368;2022-12-18T11:26:12;7.32;;;3.87;;
44147;SDS011;29810;55.848;37.368;2022-12-18T11:29:18;6.95;;;4.05;;
44147;SDS011;29810;55.848;37.368;2022-12-18T11:32:47;7.93;;;4.28;;
44147;SDS011;29810;55.848;37.368;2022-12-18T11:36:10;7.07;;;3.97;;
44147;SDS011;29810;55.848;37.368;2022-12-18T11:39:34;6.05;;;3.15;;
44147;SDS011;29810;55.848;37.368;2022-12-18T11:42:41;25.73;;;5.45;;
44147;SDS011;29810;55.848;37.368;2022-12-18T11:45:51;7.18;;;4.55;;
44147;SDS011;29810;55.848;37.368;2022-12-18T11:49:18;5.12;;;3.35;;
44147;SDS011;29810;55.848;37.368;2022-12-18T11:52:24;8.95;;;4.97;;
44147;SDS011;29810;55.848;37.368;2022-12-18T12:12:16;8.38;;;4.43;;
44147;SDS011;29810;55.848;37.368;2022-12-18T12:15:51;6.87;;;4.65;;
44147;SDS011;29810;55.848;37.368;2022-12-18T12:29:01;16.33;;;5.47;;
44147;SDS011;29810;55.848;37.368;2022-12-18T12:39:11;11.65;;;5.60;;
44147;SDS011;29810;55.848;37.368;2022-12-18T12:42:23;16.60;;;5.82;;
44147;SDS011;29810;55.848;37.368;2022-12-18T12:46:06;16.70;;;8.15;;
44147;SDS011;29810;55.848;37.368;2022-12-18T12:49:12;14.90;;;7.20;;
44147;SDS011;29810;55.848;37.368;2022-12-18T12:55:31;14.38;;;6.22;;
44147;SDS011;29810;55.848;37.368;2022-12-18T12:58:36;15.35;;;6.95;;
44147;SDS011;29810;55.848;37.368;2022-12-18T13:01:52;15.55;;;7.65;;
44147;SDS011;29810;55.848;37.368;2022-12-18T13:04:57;17.27;;;8.20;;
44147;SDS011;29810;55.848;37.368;2022-12-18T13:08:07;21.02;;;9.32;;
44147;SDS011;29810;55.848;37.368;2022-12-18T13:11:15;20.60;;;7.75;;
44147;SDS011;29810;55.848;37.368;2022-12-18T13:14:49;20.05;;;9.43;;
44147;SDS011;29810;55.848;37.368;2022-12-18T13:18:04;22.13;;;12.43;;
44147;SDS011;29810;55.848;37.368;2022-12-18T13:21:23;20.73;;;8.65;;
44147;SDS011;29810;55.848;37.368;2022-12-18T13:24:30;20.20;;;11.50;;
44147;SDS011;29810;55.848;37.368;2022-12-18T13:30:57;17.33;;;8.10;;
44147;SDS011;29810;55.848;37.368;2022-12-18T13:37:39;19.23;;;9.93;;
44147;SDS011;29810;55.848;37.368;2022-12-18T13:43:57;12.18;;;7.07;;
44147;SDS011;29810;55.848;37.368;2022-12-18T13:47:27;14.48;;;5.87;;
44147;SDS011;29810;55.848;37.368;2022-12-18T13:50:38;13.38;;;7.03;;
44147;SDS011;29810;55.848;37.368;2022-12-18T13:53:44;13.48;;;7.05;;
44147;SDS011;29810;55.848;37.368;2022-12-18T13:56:56;17.45;;;8.82;;
44147;SDS011;29810;55.848;37.368;2022-12-18T13:59:57;15.48;;;9.30;;
44147;SDS011;29810;55.848;37.368;2022-12-18T14:03:21;11.60;;;5.90;;
44147;SDS011;29810;55.848;37.368;2022-12-18T14:06:26;11.57;;;6.80;;
44147;SDS011;29810;55.848;37.368;2022-12-18T14:09:33;14.10;;;6.85;;
44147;SDS011;29810;55.848;37.368;2022-12-18T14:12:38;10.77;;;5.12;;
44147;SDS011;29810;55.848;37.368;2022-12-18T14:15:58;13.55;;;6.93;;
44147;SDS011;29810;55.848;37.368;2022-12-18T14:19:02;13.07;;;8.32;;
44147;SDS011;29810;55.848;37.368;2022-12-18T14:22:04;11.57;;;6.47;;
44147;SDS011;29810;55.848;37.368;2022-12-18T14:28:17;7.22;;;4.35;;
44147;SDS011;29810;55.848;37.368;2022-12-18T14:31:20;8.90;;;5.12;;
44147;SDS011;29810;55.848;37.368;2022-12-18T14:34:32;10.77;;;7.18;;
44147;SDS011;29810;55.848;37.368;2022-12-18T14:37:33;10.50;;;6.18;;
44147;SDS011;29810;55.848;37.368;2022-12-18T14:40:36;6.25;;;3.37;;
44147;SDS011;29810;55.848;37.368;2022-12-18T14:43:39;9.38;;;4.78;;
44147;SDS011;29810;55.848;37.368;2022-12-18T14:46:43;10.35;;;5.80;;
44147;SDS011;29810;55.848;37.368;2022-12-18T14:49:47;7.57;;;4.37;;
44147;SDS011;29810;55.848;37.368;2022-12-18T14:52:49;11.23;;;7.10;;
44147;SDS011;29810;55.848;37.368;2022-12-18T14:55:51;11.00;;;5.18;;
44147;SDS011;29810;55.848;37.368;2022-12-18T14:58:57;9.88;;;6.75;;
44147;SDS011;29810;55.848;37.368;2022-12-18T15:05:03;11.43;;;7.75;;
44147;SDS011;29810;55.848;37.368;2022-12-18T15:08:28;8.55;;;5.20;;
44147;SDS011;29810;55.848;37.368;2022-12-18T15:11:44;10.43;;;5.40;;
44147;SDS011;29810;55.848;37.368;2022-12-18T15:14:46;10.30;;;6.05;;
44147;SDS011;29810;55.848;37.368;2022-12-18T15:17:55;10.95;;;7.68;;
44147;SDS011;29810;55.848;37.368;2022-12-18T15:20:58;10.43;;;6.40;;
44147;SDS011;29810;55.848;37.368;2022-12-18T15:24:15;8.93;;;6.40;;
44147;SDS011;29810;55.848;37.368;2022-12-18T15:27:32;10.55;;;7.15;;
44147;SDS011;29810;55.848;37.368;2022-12-18T15:30:36;11.55;;;6.78;;
44147;SDS011;29810;55.848;37.368;2022-12-18T15:33:39;9.25;;;5.70;;
44147;SDS011;29810;55.848;37.368;2022-12-18T15:36:50;11.85;;;6.37;;
44147;SDS011;29810;55.848;37.368;2022-12-18T15:39:52;10.43;;;7.18;;
44147;SDS011;29810;55.848;37.368;2022-12-18T15:42:54;12.10;;;8.10;;
44147;SDS011;29810;55.848;37.368;2022-12-18T15:46:16;12.75;;;6.68;;
44147;SDS011;29810;55.848;37.368;2022-12-18T15:49:20;10.13;;;6.55;;
44147;SDS011;29810;55.848;37.368;2022-12-18T15:52:21;10.00;;;6.37;;
44147;SDS011;29810;55.848;37.368;2022-12-18T15:55:27;12.13;;;7.25;;
44147;SDS011;29810;55.848;37.368;2022-12-18T15:58:47;11.23;;;6.55;;
44147;SDS011;29810;55.848;37.368;2022-12-18T16:01:50;11.52;;;7.60;;
44147;SDS011;29810;55.848;37.368;2022-12-18T16:04:54;12.40;;;7.43;;
44147;SDS011;29810;55.848;37.368;2022-12-18T16:07:55;9.75;;;5.62;;
44147;SDS011;29810;55.848;37.368;2022-12-18T16:10:57;12.07;;;6.75;;
44147;SDS011;29810;55.848;37.368;2022-12-18T16:13:59;12.50;;;7.30;;
44147;SDS011;29810;55.848;37.368;2022-12-18T16:17:02;10.25;;;5.37;;
44147;SDS011;29810;55.848;37.368;2022-12-18T16:20:08;13.15;;;7.60;;
44147;SDS011;29810;55.848;37.368;2022-12-18T16:23:17;11.23;;;7.75;;
44147;SDS011;29810;55.848;37.368;2022-12-18T16:26:18;11.52;;;7.43;;
44147;SDS011;29810;55.848;37.368;2022-12-18T16:29:23;11.07;;;6.55;;
44147;SDS011;29810;55.848;37.368;2022-12-18T16:32:28;12.48;;;8.43;;
44147;SDS011;29810;55.848;37.368;2022-12-18T16:35:30;12.37;;;6.80;;
44147;SDS011;29810;55.848;37.368;2022-12-18T16:38:31;12.43;;;5.37;;
44147;SDS011;29810;55.848;37.368;2022-12-18T16:41:34;13.60;;;6.70;;
44147;SDS011;29810;55.848;37.368;2022-12-18T16:44:38;11.90;;;6.30;;
44147;SDS011;29810;55.848;37.368;2022-12-18T16:47:40;12.60;;;7.22;;
44147;SDS011;29810;55.848;37.368;2022-12-18T16:50:42;10.98;;;6.22;;
44147;SDS011;29810;55.848;37.368;2022-12-18T16:53:44;12.85;;;6.93;;
44147;SDS011;29810;55.848;37.368;2022-12-18T16:56:45;12.57;;;7.72;;
44147;SDS011;29810;55.848;37.368;2022-12-18T16:59:50;11.63;;;5.60;;
44147;SDS011;29810;55.848;37.368;2022-12-18T17:02:51;11.80;;;7.10;;
44147;SDS011;29810;55.848;37.368;2022-12-18T17:05:53;14.30;;;7.07;;
44147;SDS011;29810;55.848;37.368;2022-12-18T17:09:04;12.70;;;6.45;;
44147;SDS011;29810;55.848;37.368;2022-12-18T17:12:08;12.35;;;6.95;;
44147;SDS011;29810;55.848;37.368;2022-12-18T17:15:10;11.48;;;6.55;;
44147;SDS011;29810;55.848;37.368;2022-12-18T17:18:12;13.10;;;6.10;;
44147;SDS011;29810;55.848;37.368;2022-12-18T17:21:13;12.60;;;6.90;;
44147;SDS011;29810;55.848;37.368;2022-12-18T17:24:16;16.05;;;7.45;;
44147;SDS011;29810;55.848;37.368;2022-12-18T17:27:18;15.70;;;8.73;;
44147;SDS011;29810;55.848;37.368;2022-12-18T17:30:20;17.12;;;7.80;;
44147;SDS011;29810;55.848;37.368;2022-12-18T17:33:22;14.10;;;8.98;;
44147;SDS011;29810;55.848;37.368;2022-12-18T17:36:24;13.23;;;8.43;;
44147;SDS011;29810;55.848;37.368;2022-12-18T17:39:30;18.10;;;12.93;;
44147;SDS011;29810;55.848;37.368;2022-12-18T17:42:33;11.20;;;7.25;;
44147;SDS011;29810;55.848;37.368;2022-12-18T17:45:35;16.67;;;10.35;;
44147;SDS011;29810;55.848;37.368;2022-12-18T17:48:40;16.42;;;7.15;;
44147;SDS011;29810;55.848;37.368;2022-12-18T17:51:41;13.55;;;7.47;;
44147;SDS011;29810;55.848;37.368;2022-12-18T17:54:43;13.40;;;7.68;;
44147;SDS011;29810;55.848;37.368;2022-12-18T17:57:44;10.82;;;5.20;;
44147;SDS011;29810;55.848;37.368;2022-12-18T18:00:47;17.92;;;11.73;;
44147;SDS011;29810;55.848;37.368;2022-12-18T18:03:49;17.20;;;9.27;;
44147;SDS011;29810;55.848;37.368;2022-12-18T18:06:50;15.43;;;7.87;;
44147;SDS011;29810;55.848;37.368;2022-12-18T18:09:52;17.40;;;9.07;;
44147;SDS011;29810;55.848;37.368;2022-12-18T18:12:53;19.12;;;10.48;;
44147;SDS011;29810;55.848;37.368;2022-12-18T18:16:14;19.05;;;10.20;;
44147;SDS011;29810;55.848;37.368;2022-12-18T18:19:16;15.80;;;7.40;;
44147;SDS011;29810;55.848;37.368;2022-12-18T18:22:19;19.17;;;8.02;;
44147;SDS011;29810;55.848;37.368;2022-12-18T18:25:24;18.37;;;9.43;;
44147;SDS011;29810;55.848;37.368;2022-12-18T18:28:26;15.90;;;7.95;;
44147;SDS011;29810;55.848;37.368;2022-12-18T18:31:28;19.10;;;8.32;;
44147;SDS011;29810;55.848;37.368;2022-12-18T18:34:31;22.37;;;9.05;;
44147;SDS011;29810;55.848;37.368;2022-12-18T18:37:33;16.73;;;7.65;;
44147;SDS011;29810;55.848;37.368;2022-12-18T18:40:35;17.80;;;7.85;;
44147;SDS011;29810;55.848;37.368;2022-12-18T18:43:37;21.90;;;10.93;;
44147;SDS011;29810;55.848;37.368;2022-12-18T18:46:39;23.33;;;11.48;;
44147;SDS011;29810;55.848;37.368;2022-12-18T18:49:41;22.40;;;10.25;;
44147;SDS011;29810;55.848;37.368;2022-12-18T18:52:43;24.33;;;10.07;;
44147;SDS011;29810;55.848;37.368;2022-12-18T18:55:45;23.50;;;11.60;;
44147;SDS011;29810;55.848;37.368;2022-12-18T18:58:46;25.42;;;13.98;;
44147;SDS011;29810;55.848;37.368;2022-12-18T19:01:48;21.17;;;10.02;;
44147;SDS011;29810;55.848;37.368;2022-12-18T19:04:53;22.55;;;9.82;;
44147;SDS011;29810;55.848;37.368;2022-12-18T19:07:54;28.50;;;10.95;;
44147;SDS011;29810;55.848;37.368;2022-12-18T19:10:57;30.70;;;15.07;;
44147;SDS011;29810;55.848;37.368;2022-12-18T19:14:01;24.65;;;10.90;;
44147;SDS011;29810;55.848;37.368;2022-12-18T19:17:06;24.63;;;10.73;;
44147;SDS011;29810;55.848;37.368;2022-12-18T19:20:08;23.75;;;9.40;;
44147;SDS011;29810;55.848;37.368;2022-12-18T19:23:11;23.77;;;12.43;;
44147;SDS011;29810;55.848;37.368;2022-12-18T19:26:16;29.05;;;13.90;;
44147;SDS011;29810;55.848;37.368;2022-12-18T19:29:18;25.45;;;12.15;;
44147;SDS011;29810;55.848;37.368;2022-12-18T19:32:20;31.20;;;15.38;;
44147;SDS011;29810;55.848;37.368;2022-12-18T19:35:25;31.37;;;18.48;;
44147;SDS011;29810;55.848;37.368;2022-12-18T19:38:29;25.58;;;11.95;;
44147;SDS011;29810;55.848;37.368;2022-12-18T19:41:30;24.73;;;10.52;;
44147;SDS011;29810;55.848;37.368;2022-12-18T19:44:32;32.33;;;9.77;;
44147;SDS011;29810;55.848;37.368;2022-12-18T19:47:34;24.83;;;9.65;;